Time;durP1;ratioP1;P1;durP2;ratioP2;P2;SDS_P1;SDS_P2;PMS_P1;PMS_P2;Temp;Humidity;BMP_temperature;BMP_pressure;BME280_temperature;BME280_humidity;BME280_pressure;Samples;Min_cycle;Max_cycle;Signal;HPM_P1;HPM_P2
2021/04/11 00:00:33;;;;;;;53.55;25.25;;;8.60;79.80;;;;;;5056046;28;20104;-70
2021/04/11 00:02:59;;;;;;;55.78;27.13;;;8.40;79.60;;;;;;5037512;28;20045;-71
2021/04/11 00:05:31;;;;;;;62.50;26.15;;;8.50;80.80;;;;;;5037867;28;20025;-71
2021/04/11 00:07:58;;;;;;;60.40;28.27;;;8.60;80.50;;;;;;5037823;28;20029;-70
2021/04/11 00:10:29;;;;;;;60.72;26.70;;;8.70;80.00;;;;;;5055749;28;20021;-70
2021/04/11 00:12:56;;;;;;;62.00;28.02;;;8.70;80.50;;;;;;5037836;28;20037;-69
2021/04/11 00:15:22;;;;;;;59.90;28.67;;;8.60;79.60;;;;;;5055333;28;20150;-71
2021/04/11 00:17:48;;;;;;;59.92;29.27;;;8.70;82.80;;;;;;5055556;28;20047;-70
2021/04/11 00:20:15;;;;;;;61.45;27.48;;;8.50;82.40;;;;;;5055801;28;20481;-70
2021/04/11 00:22:41;;;;;;;58.95;28.00;;;8.60;84.60;;;;;;5055450;28;20465;-69
2021/04/11 00:25:13;;;;;;;57.63;26.83;;;8.60;83.00;;;;;;5055387;28;20040;-70
2021/04/11 00:27:40;;;;;;;72.25;30.60;;;8.70;81.80;;;;;;5055259;28;20060;-69
2021/04/11 00:30:06;;;;;;;69.57;30.10;;;8.60;81.40;;;;;;5037433;28;20065;-72
2021/04/11 00:32:32;;;;;;;79.88;32.35;;;8.50;82.10;;;;;;5055200;28;20420;-71
2021/04/11 00:34:58;;;;;;;80.78;34.17;;;8.60;82.50;;;;;;5037999;28;20079;-71
2021/04/11 00:37:24;;;;;;;92.80;35.20;;;8.40;83.90;;;;;;5054875;28;20358;-71
2021/04/11 00:39:51;;;;;;;89.43;35.30;;;8.40;85.20;;;;;;5037197;28;20028;-72
2021/04/11 00:42:25;;;;;;;80.30;34.00;;;8.40;83.00;;;;;;5055064;28;20036;-71
2021/04/11 00:44:52;;;;;;;83.38;30.88;;;8.40;84.00;;;;;;5037550;28;20036;-70
2021/04/11 00:47:19;;;;;;;78.88;32.60;;;8.30;83.50;;;;;;5054626;28;20032;-72
2021/04/11 00:49:46;;;;;;;82.60;33.22;;;8.30;83.20;;;;;;5054934;28;20414;-72
2021/04/11 00:52:14;;;;;;;70.60;31.83;;;8.30;83.50;;;;;;5054848;28;20052;-71
2021/04/11 00:54:41;;;;;;;74.43;32.38;;;8.40;83.20;;;;;;5036808;28;20025;-73
2021/04/11 00:57:09;;;;;;;62.97;30.65;;;8.40;82.80;;;;;;5054873;28;20025;-73
2021/04/11 00:59:35;;;;;;;58.53;30.23;;;8.30;84.90;;;;;;5054441;28;20405;-73
2021/04/11 01:02:01;;;;;;;67.18;31.52;;;8.30;84.10;;;;;;5036257;28;20083;-72
2021/04/11 01:04:28;;;;;;;77.85;33.13;;;8.30;84.40;;;;;;5054622;28;20434;-73
2021/04/11 01:06:59;;;;;;;83.40;33.90;;;8.20;84.40;;;;;;5036672;28;20025;-72
2021/04/11 01:09:54;;;;;;;75.72;32.70;;;8.20;84.20;;;;;;5053716;28;20025;-72
2021/04/11 01:12:23;;;;;;;69.38;28.55;;;8.20;84.60;;;;;;4954108;29;20042;-74
2021/04/11 01:14:50;;;;;;;53.60;26.20;;;8.20;84.40;;;;;;4954258;29;20038;-70
2021/04/11 01:17:19;;;;;;;66.88;26.00;;;8.30;83.10;;;;;;4938060;29;20045;-72
2021/04/11 01:19:49;;;;;;;52.45;24.77;;;8.30;83.30;;;;;;4954028;29;20036;-73
2021/04/11 01:22:39;;;;;;;67.25;27.38;;;8.30;84.00;;;;;;4953893;29;20039;-72
2021/04/11 01:25:16;;;;;;;63.15;28.08;;;8.30;84.40;;;;;;4937912;29;20499;-71
2021/04/11 01:27:42;;;;;;;80.25;29.23;;;8.30;83.80;;;;;;4953827;29;20075;-71
2021/04/11 01:30:30;;;;;;;70.75;28.73;;;8.30;84.40;;;;;;4954324;29;20039;-70
2021/04/11 01:32:57;;;;;;;79.57;31.75;;;8.30;83.40;;;;;;4953833;29;20039;-73
2021/04/11 01:35:25;;;;;;;69.10;31.30;;;8.30;85.50;;;;;;4937703;29;20043;-71
2021/04/11 01:37:53;;;;;;;67.43;27.52;;;8.20;86.20;;;;;;4953814;29;20075;-74
2021/04/11 01:40:35;;;;;;;70.93;29.65;;;8.20;86.00;;;;;;4954063;29;20035;-72
2021/04/11 01:43:04;;;;;;;68.57;29.30;;;8.20;85.60;;;;;;4953795;29;20072;-70
2021/04/11 01:45:33;;;;;;;62.38;29.83;;;8.20;86.00;;;;;;4953958;29;20035;-70
2021/04/11 01:47:59;;;;;;;74.55;31.90;;;8.10;85.60;;;;;;4974254;28;20045;-70
2021/04/11 01:50:25;;;;;;;77.72;32.90;;;8.20;86.40;;;;;;5035981;28;20083;-70
2021/04/11 01:52:52;;;;;;;70.50;32.88;;;8.20;87.30;;;;;;5053994;28;20037;-71
2021/04/11 01:55:19;;;;;;;74.97;34.25;;;8.10;86.80;;;;;;5035927;28;20373;-71
2021/04/11 01:57:46;;;;;;;62.20;28.23;;;8.10;89.40;;;;;;5053842;28;20025;-71
2021/04/11 02:00:13;;;;;;;67.30;29.63;;;8.00;88.90;;;;;;5053808;28;20060;-73
2021/04/11 02:02:39;;;;;;;73.38;30.20;;;7.90;90.10;;;;;;5035259;28;20049;-73
2021/04/11 02:05:15;;;;;;;64.57;29.10;;;7.90;90.00;;;;;;5053787;28;20111;-72
2021/04/11 02:07:44;;;;;;;68.40;32.38;;;8.00;90.10;;;;;;5035880;28;20489;-71
2021/04/11 02:10:11;;;;;;;69.60;32.67;;;8.10;89.00;;;;;;5053415;28;20378;-73
2021/04/11 02:12:38;;;;;;;63.40;30.48;;;8.00;89.60;;;;;;5053356;28;20381;-72
2021/04/11 02:15:18;;;;;;;65.10;32.28;;;8.10;90.30;;;;;;5053610;28;20083;-73
2021/04/11 02:17:46;;;;;;;65.70;30.23;;;8.00;90.20;;;;;;5035715;28;20025;-73
2021/04/11 02:20:13;;;;;;;61.15;29.55;;;8.10;89.50;;;;;;5053529;28;20029;-72
2021/04/11 02:22:40;;;;;;;63.88;31.13;;;8.00;90.20;;;;;;5057156;28;20025;-73
2021/04/11 02:25:11;;;;;;;74.70;33.85;;;8.10;90.00;;;;;;5057669;28;20044;-72
2021/04/11 02:27:37;;;;;;;63.25;30.55;;;8.10;88.80;;;;;;5057386;28;20378;-72
2021/04/11 02:30:09;;;;;;;64.35;29.58;;;8.10;88.40;;;;;;5039604;28;20044;-73
2021/04/11 02:32:35;;;;;;;63.90;32.10;;;8.10;88.20;;;;;;5057586;28;20465;-70
2021/04/11 02:35:04;;;;;;;64.80;31.80;;;8.20;87.90;;;;;;5039494;28;20048;-73
2021/04/11 02:37:33;;;;;;;62.78;31.50;;;8.20;87.00;;;;;;5057627;28;20029;-71
2021/04/11 02:40:00;;;;;;;69.47;32.85;;;8.20;88.80;;;;;;5057639;28;20049;-71
2021/04/11 02:42:31;;;;;;;61.72;30.20;;;8.10;88.60;;;;;;5057174;28;20063;-73
2021/04/11 02:45:10;;;;;;;61.97;28.95;;;8.00;90.00;;;;;;5039551;28;20120;-72
2021/04/11 02:47:36;;;;;;;67.25;30.42;;;8.00;90.60;;;;;;5039309;28;20109;-72
2021/04/11 02:50:04;;;;;;;63.20;30.98;;;8.00;90.70;;;;;;5039209;28;20463;-72
2021/04/11 02:52:39;;;;;;;72.20;34.63;;;8.00;89.60;;;;;;5057138;28;20072;-73
2021/04/11 02:55:07;;;;;;;79.88;39.13;;;8.00;90.10;;;;;;5057156;28;20032;-71
2021/04/11 02:57:33;;;;;;;88.50;40.78;;;8.00;90.20;;;;;;5057378;28;20120;-71
2021/04/11 02:59:59;;;;;;;90.30;40.35;;;8.00;89.10;;;;;;5057004;28;20116;-72
2021/04/11 03:02:25;;;;;;;79.85;37.58;;;8.00;90.00;;;;;;5056581;28;20125;-71
2021/04/11 03:04:52;;;;;;;79.45;36.45;;;8.00;91.20;;;;;;5039017;28;20117;-71
2021/04/11 03:07:23;;;;;;;76.38;37.47;;;8.00;90.50;;;;;;5056547;28;20025;-73
2021/04/11 03:09:57;;;;;;;79.13;34.85;;;8.00;90.20;;;;;;5056908;28;20107;-72
2021/04/11 03:12:23;;;;;;;72.65;34.30;;;7.90;90.10;;;;;;5038924;28;20032;-71
2021/04/11 03:14:51;;;;;;;75.70;35.05;;;7.90;90.60;;;;;;5056396;28;20450;-70
2021/04/11 03:17:21;;;;;;;78.57;36.17;;;7.80;91.20;;;;;;5056753;28;20029;-71
2021/04/11 03:19:55;;;;;;;90.22;43.00;;;7.70;91.80;;;;;;5056905;28;20029;-71
2021/04/11 03:22:21;;;;;;;82.85;41.00;;;7.70;91.60;;;;;;5038670;28;20527;-71
2021/04/11 03:24:49;;;;;;;84.20;38.17;;;7.80;91.50;;;;;;5038719;28;20028;-73
2021/04/11 03:27:36;;;;;;;78.65;39.38;;;7.80;91.20;;;;;;5056541;28;20036;-73
2021/04/11 03:30:08;;;;;;;80.88;37.92;;;7.80;91.50;;;;;;5056667;28;20029;-73
2021/04/11 03:32:40;;;;;;;63.95;31.42;;;7.80;91.40;;;;;;5037409;28;20029;-72
2021/04/11 03:35:08;;;;;;;76.28;34.92;;;7.60;91.80;;;;;;5038477;28;20033;-72
2021/04/11 03:37:36;;;;;;;78.68;38.83;;;7.50;91.70;;;;;;5056249;28;20036;-72
2021/04/11 03:40:04;;;;;;;103.78;42.53;;;7.40;91.70;;;;;;5038413;28;20385;-72
2021/04/11 03:42:33;;;;;;;91.47;41.33;;;7.30;91.80;;;;;;5055958;28;20029;-72
2021/04/11 03:44:59;;;;;;;93.10;42.25;;;7.30;91.70;;;;;;5056161;28;20025;-72
2021/04/11 03:47:49;;;;;;;89.60;40.78;;;7.40;91.80;;;;;;5056090;28;20347;-72
2021/04/11 03:50:25;;;;;;;79.60;37.20;;;7.30;91.60;;;;;;5056197;28;20028;-72
2021/04/11 03:53:10;;;;;;;77.00;35.33;;;7.30;91.70;;;;;;5038027;28;20465;-72
2021/04/11 03:55:39;;;;;;;76.40;38.58;;;7.30;91.90;;;;;;5038300;28;20033;-72
2021/04/11 03:58:17;;;;;;;116.22;50.80;;;7.30;92.80;;;;;;5038153;28;20021;-71
2021/04/11 04:00:48;;;;;;;103.03;43.95;;;7.30;92.90;;;;;;5055675;28;20037;-72
2021/04/11 04:03:18;;;;;;;99.53;46.70;;;7.30;92.60;;;;;;5056074;28;20364;-71
2021/04/11 04:05:47;;;;;;;92.60;43.97;;;7.30;92.50;;;;;;5037884;28;20385;-71
2021/04/11 04:08:12;;;;;;;92.57;38.00;;;7.40;92.80;;;;;;5055749;28;20029;-72
2021/04/11 04:10:42;;;;;;;65.45;30.23;;;7.40;92.10;;;;;;5055359;28;20025;-71
2021/04/11 04:13:13;;;;;;;73.45;34.65;;;7.50;91.20;;;;;;5037820;28;20033;-70
2021/04/11 04:15:44;;;;;;;72.63;31.65;;;7.60;90.50;;;;;;5055702;28;20029;-70
2021/04/11 04:18:16;;;;;;;74.72;33.42;;;7.60;89.50;;;;;;5055338;28;20056;-70
2021/04/11 04:20:45;;;;;;;75.20;34.08;;;7.60;90.10;;;;;;5055518;28;20035;-70
2021/04/11 04:23:28;;;;;;;85.47;37.53;;;7.50;91.10;;;;;;5055516;28;20078;-71
2021/04/11 04:26:45;;;;;;;127.82;41.78;;;7.40;91.60;;;;;;5055547;28;20040;-72
2021/04/11 04:29:18;;;;;;;95.10;36.10;;;7.30;90.70;;;;;;4954998;29;20042;-71
2021/04/11 04:31:51;;;;;;;92.13;36.35;;;7.30;90.70;;;;;;4954969;29;20039;-71
2021/04/11 04:34:20;;;;;;;92.75;38.00;;;7.30;91.00;;;;;;4954893;29;20507;-70
2021/04/11 04:36:54;;;;;;;81.85;34.67;;;7.30;90.80;;;;;;4955240;29;20500;-71
2021/04/11 04:39:31;;;;;;;73.20;32.88;;;7.30;90.80;;;;;;4955247;29;20032;-70
2021/04/11 04:42:15;;;;;;;66.90;30.75;;;7.40;90.60;;;;;;4954784;29;20043;-70
2021/04/11 04:45:24;;;;;;;49.92;24.83;;;7.40;91.00;;;;;;4938482;29;20043;-72
2021/04/11 04:47:55;;;;;;;36.42;19.77;;;7.50;89.70;;;;;;4954863;29;20162;-71
2021/04/11 04:50:28;;;;;;;41.95;19.15;;;7.60;88.20;;;;;;4938582;29;20125;-71
2021/04/11 04:53:42;;;;;;;53.65;23.90;;;7.60;88.30;;;;;;4954754;29;20035;-71
2021/04/11 04:56:15;;;;;;;60.67;24.08;;;7.70;91.10;;;;;;4954371;28;20420;-72
2021/04/11 04:58:45;;;;;;;58.63;24.10;;;7.70;91.50;;;;;;4954683;29;20028;-71
2021/04/11 05:01:16;;;;;;;60.28;25.83;;;7.80;90.90;;;;;;4954112;29;20047;-70
2021/04/11 05:03:48;;;;;;;42.47;20.45;;;7.80;92.00;;;;;;5012924;28;20088;-71
2021/04/11 05:06:32;;;;;;;44.47;21.92;;;7.80;90.10;;;;;;5033604;28;20124;-71
2021/04/11 05:09:11;;;;;;;54.92;25.83;;;7.80;90.80;;;;;;5033445;28;20454;-72
2021/04/11 05:11:55;;;;;;;57.75;26.75;;;7.90;91.30;;;;;;5033412;28;20056;-72
2021/04/11 05:14:28;;;;;;;58.63;26.83;;;8.00;91.20;;;;;;5025746;28;20060;-71
2021/04/11 05:17:03;;;;;;;57.83;27.58;;;8.10;90.80;;;;;;5013884;28;20442;-72
2021/04/11 05:19:42;;;;;;;58.63;25.33;;;8.10;90.90;;;;;;5014965;28;20022;-71
2021/04/11 05:22:22;;;;;;;57.45;25.25;;;8.10;92.10;;;;;;5014757;28;20105;-71
2021/04/11 05:24:52;;;;;;;49.95;21.40;;;8.20;91.40;;;;;;5013426;28;20057;-71
2021/04/11 05:27:33;;;;;;;61.42;24.15;;;8.30;91.00;;;;;;5014414;28;20387;-69
2021/04/11 05:30:09;;;;;;;64.63;24.45;;;8.40;91.10;;;;;;5013273;28;20026;-73
2021/04/11 05:32:35;;;;;;;65.80;26.73;;;8.50;90.60;;;;;;5013245;28;20478;-72
2021/04/11 05:35:01;;;;;;;61.50;26.52;;;8.60;91.40;;;;;;5013178;28;20029;-72
2021/04/11 05:37:45;;;;;;;54.38;26.90;;;8.80;89.60;;;;;;5012892;28;20033;-71
2021/04/11 05:40:24;;;;;;;63.25;28.10;;;8.90;88.40;;;;;;5013129;28;20463;-72
2021/04/11 05:42:59;;;;;;;52.05;25.67;;;9.00;90.00;;;;;;5014682;28;20026;-70
2021/04/11 05:45:43;;;;;;;78.28;33.67;;;9.10;89.30;;;;;;5014301;28;20058;-71
2021/04/11 05:48:28;;;;;;;76.72;35.53;;;9.20;88.60;;;;;;5014326;28;20025;-72
2021/04/11 05:51:02;;;;;;;65.93;31.63;;;9.30;89.40;;;;;;5013087;28;20390;-72
2021/04/11 05:53:34;;;;;;;63.85;29.17;;;9.50;89.20;;;;;;5014513;28;20033;-72
2021/04/11 05:56:17;;;;;;;59.75;26.40;;;9.50;91.70;;;;;;5012333;28;20037;-72
2021/04/11 05:58:53;;;;;;;56.30;24.00;;;9.80;87.10;;;;;;5014305;28;20030;-70
2021/04/11 06:01:24;;;;;;;56.20;25.42;;;10.00;85.10;;;;;;5019878;28;20057;-72
2021/04/11 06:04:00;;;;;;;54.97;24.95;;;10.10;84.80;;;;;;5016407;28;20119;-73
2021/04/11 06:07:01;;;;;;;65.00;25.08;;;10.20;82.20;;;;;;5016044;28;20038;-71
2021/04/11 06:09:47;;;;;;;56.30;27.27;;;10.40;81.70;;;;;;5001686;28;20033;-71
2021/04/11 06:12:33;;;;;;;51.30;23.00;;;10.60;80.80;;;;;;5033674;28;20112;-74
2021/04/11 06:15:08;;;;;;;50.00;23.55;;;10.80;78.80;;;;;;5015953;28;20037;-73
2021/04/11 06:17:34;;;;;;;55.10;22.88;;;;;;;;;;5033687;28;20128;-72
2021/04/11 06:20:04;;;;;;;57.00;24.63;;;10.90;75.80;;;;;;5033688;28;20079;-71
2021/04/11 06:22:49;;;;;;;59.78;23.80;;;11.00;77.60;;;;;;5015856;28;20033;-72
2021/04/11 06:25:27;;;;;;;53.55;25.50;;;11.20;77.90;;;;;;5016136;28;20025;-72
2021/04/11 06:28:37;;;;;;;53.10;23.77;;;11.20;77.00;;;;;;5033593;28;20474;-70
2021/04/11 06:31:21;;;;;;;71.18;31.48;;;11.30;77.20;;;;;;4969976;28;20044;-72
2021/04/11 06:33:52;;;;;;;227.20;96.53;;;11.50;75.10;;;;;;5033486;28;20112;-70
2021/04/11 06:36:53;;;;;;;104.38;54.75;;;11.60;79.00;;;;;;5033534;28;20044;-70
2021/04/11 06:39:27;;;;;;;135.82;81.07;;;11.70;81.60;;;;;;5011905;28;20056;-69
2021/04/11 06:41:59;;;;;;;158.55;110.45;;;11.80;81.60;;;;;;5033413;28;20029;-70
2021/04/11 06:44:25;;;;;;;147.15;102.45;;;11.90;81.80;;;;;;5033460;28;20030;-71
2021/04/11 06:47:20;;;;;;;84.43;51.72;;;12.10;81.60;;;;;;5033659;28;20528;-72
2021/04/11 06:50:10;;;;;;;43.92;23.50;;;12.20;81.60;;;;;;4933910;29;20039;-73
2021/04/11 06:52:48;;;;;;;39.15;17.30;;;12.30;80.10;;;;;;4933899;29;20032;-71
2021/04/11 06:55:32;;;;;;;28.35;12.15;;;12.60;78.60;;;;;;4933925;29;20047;-73
2021/04/11 06:58:36;;;;;;;26.65;11.23;;;12.80;77.60;;;;;;4934033;29;20433;-72
2021/04/11 07:01:43;;;;;;;20.13;10.50;;;13.10;74.00;;;;;;4924658;29;20040;-71
2021/04/11 07:04:29;;;;;;;17.80;9.45;;;13.30;74.00;;;;;;4933846;29;20040;-73
2021/04/11 07:07:32;;;;;;;20.27;10.25;;;13.60;73.10;;;;;;4934299;29;20512;-71
2021/04/11 07:10:28;;;;;;;19.65;11.43;;;13.90;72.30;;;;;;4937316;29;20028;-72
2021/04/11 07:12:59;;;;;;;16.75;10.40;;;14.20;74.50;;;;;;4940151;29;20039;-73
2021/04/11 07:16:01;;;;;;;21.40;11.10;;;14.40;72.00;;;;;;4956114;29;20066;-69
2021/04/11 07:18:36;;;;;;;19.63;9.13;;;14.60;71.30;;;;;;4953679;29;20050;-71
2021/04/11 07:21:29;;;;;;;15.52;7.43;;;14.80;69.70;;;;;;4956530;29;20047;-71
2021/04/11 07:24:39;;;;;;;15.70;7.40;;;15.00;67.90;;;;;;4956699;29;20215;-71
2021/04/11 07:27:37;;;;;;;10.52;5.10;;;15.30;64.20;;;;;;4989510;28;20395;-71
2021/04/11 07:30:03;;;;;;;9.27;5.25;;;15.80;61.10;;;;;;4997275;28;20109;-69
2021/04/11 07:32:48;;;;;;;9.98;5.18;;;16.30;57.20;;;;;;4997228;28;20098;-68
2021/04/11 07:35:17;;;;;;;11.38;6.00;;;16.30;58.00;;;;;;4997040;28;20026;-70
2021/04/11 07:38:07;;;;;;;11.75;5.00;;;16.60;56.50;;;;;;4997046;28;20041;-68
2021/04/11 07:41:15;;;;;;;12.35;4.55;;;16.80;55.10;;;;;;4997118;28;20097;-70
2021/04/11 07:43:53;;;;;;;12.60;4.70;;;17.10;55.00;;;;;;4996953;28;20092;-70
2021/04/11 07:46:47;;;;;;;8.45;4.30;;;17.20;55.50;;;;;;4997137;28;20026;-69
2021/04/11 07:49:38;;;;;;;10.23;4.65;;;17.20;54.30;;;;;;4996572;28;20101;-70
2021/04/11 07:52:23;;;;;;;18.48;5.22;;;17.40;54.40;;;;;;4996753;28;20521;-70
2021/04/11 07:55:10;;;;;;;10.13;4.50;;;17.60;55.50;;;;;;4996701;28;20034;-71
2021/04/11 07:58:06;;;;;;;8.63;4.82;;;17.70;53.90;;;;;;4996989;28;20040;-70
2021/04/11 08:00:48;;;;;;;9.20;4.32;;;17.70;55.80;;;;;;4996442;28;20105;-72
2021/04/11 08:03:26;;;;;;;7.72;4.25;;;17.80;53.50;;;;;;4996512;28;20038;-71
2021/04/11 08:06:19;;;;;;;6.93;4.13;;;18.00;54.30;;;;;;4996642;28;20076;-69
2021/04/11 08:09:07;;;;;;;8.45;3.97;;;18.00;53.70;;;;;;4996567;28;20031;-67
2021/04/11 08:11:54;;;;;;;16.42;7.72;;;18.10;51.20;;;;;;4996436;28;20034;-72
2021/04/11 08:14:57;;;;;;;24.33;9.48;;;17.90;49.80;;;;;;5011396;28;20035;-70
2021/04/11 08:17:25;;;;;;;14.75;7.32;;;18.10;50.00;;;;;;4996099;28;20034;-69
2021/04/11 08:20:14;;;;;;;20.75;8.82;;;18.20;49.40;;;;;;4995701;28;20030;-69
2021/04/11 08:22:59;;;;;;;12.07;6.40;;;18.30;49.60;;;;;;5011528;28;20089;-71
2021/04/11 08:25:52;;;;;;;18.60;6.78;;;18.40;50.00;;;;;;4996193;28;20026;-71
2021/04/11 08:28:43;;;;;;;14.15;7.47;;;18.40;51.40;;;;;;4996472;28;20478;-68
2021/04/11 08:31:45;;;;;;;13.40;7.35;;;18.50;51.90;;;;;;4996154;28;20022;-69
2021/04/11 08:34:29;;;;;;;10.63;6.63;;;18.60;49.40;;;;;;4994784;28;20069;-69
2021/04/11 08:37:30;;;;;;;8.85;5.00;;;18.70;50.00;;;;;;4996257;28;20026;-69
2021/04/11 08:40:10;;;;;;;14.95;9.35;;;19.00;47.70;;;;;;4995745;28;20467;-71
2021/04/11 08:43:14;;;;;;;16.23;7.67;;;19.10;47.40;;;;;;5010959;28;20487;-71
2021/04/11 08:46:01;;;;;;;13.07;6.30;;;19.20;48.30;;;;;;4994561;28;20023;-71
2021/04/11 08:48:57;;;;;;;10.35;5.93;;;19.30;47.30;;;;;;4995706;28;20034;-71
2021/04/11 08:52:01;;;;;;;9.85;4.68;;;19.40;48.10;;;;;;4995402;28;20026;-70
2021/04/11 08:54:45;;;;;;;11.57;5.07;;;19.60;47.50;;;;;;4995616;28;20499;-69
2021/04/11 08:57:38;;;;;;;7.60;4.20;;;19.80;47.20;;;;;;4995462;28;20030;-70
2021/04/11 09:00:19;;;;;;;13.35;4.47;;;20.10;46.60;;;;;;4995482;28;20026;-71
2021/04/11 09:03:09;;;;;;;12.05;5.82;;;20.40;44.50;;;;;;5030154;28;20058;-70
2021/04/11 09:05:40;;;;;;;8.73;4.80;;;20.50;46.50;;;;;;5035063;28;20489;-70
2021/04/11 09:08:24;;;;;;;9.50;3.90;;;20.50;44.30;;;;;;5034557;28;20036;-70
2021/04/11 09:10:59;;;;;;;15.63;5.82;;;20.50;46.00;;;;;;5016835;28;20105;-72
2021/04/11 09:13:35;;;;;;;12.48;5.07;;;;;;;;;;5016819;28;20029;-71
2021/04/11 09:16:16;;;;;;;6.55;3.25;;;21.10;44.50;;;;;;5034756;28;20523;-72
2021/04/11 09:18:51;;;;;;;6.90;4.50;;;21.50;42.80;;;;;;5016779;28;20033;-71
2021/04/11 09:21:30;;;;;;;7.47;3.78;;;21.50;43.00;;;;;;5034643;28;20033;-72
2021/04/11 09:24:16;;;;;;;26.38;11.30;;;21.80;42.10;;;;;;5038041;28;20040;-69
2021/04/11 09:26:42;;;;;;;8.35;3.30;;;21.90;43.30;;;;;;5051423;28;20432;-75
2021/04/11 09:29:17;;;;;;;7.43;3.42;;;22.50;43.00;;;;;;5036015;28;20024;-70
2021/04/11 09:32:08;;;;;;;11.93;5.07;;;22.50;41.40;;;;;;5053070;28;20029;-72
2021/04/11 09:34:54;;;;;;;11.95;3.88;;;22.60;40.60;;;;;;5053647;28;20033;-71
2021/04/11 09:37:58;;;;;;;7.03;2.83;;;22.40;42.10;;;;;;5054317;28;20094;-71
2021/04/11 09:40:32;;;;;;;9.45;3.40;;;22.30;40.80;;;;;;5054117;28;20074;-71
2021/04/11 09:43:20;;;;;;;4.70;2.60;;;22.00;38.10;;;;;;5054068;28;20029;-71
2021/04/11 09:45:56;;;;;;;8.80;2.78;;;21.90;37.00;;;;;;5036150;28;20031;-71
2021/04/11 09:48:42;;;;;;;4.05;2.38;;;21.80;37.00;;;;;;5036037;28;20033;-72
2021/04/11 09:51:30;;;;;;;3.85;2.50;;;21.70;37.10;;;;;;5036360;28;20037;-70
2021/04/11 09:54:33;;;;;;;5.72;3.78;;;21.80;37.90;;;;;;5036452;28;20102;-72
2021/04/11 09:57:40;;;;;;;9.75;3.15;;;21.90;38.50;;;;;;5053837;28;20025;-71
2021/04/11 10:00:17;;;;;;;9.95;4.38;;;22.10;38.80;;;;;;5054131;28;20346;-73
2021/04/11 10:03:04;;;;;;;8.45;3.85;;;22.10;37.80;;;;;;5032373;28;20375;-72
2021/04/11 10:05:46;;;;;;;5.75;3.00;;;22.10;37.70;;;;;;5032572;28;20025;-71
2021/04/11 10:08:41;;;;;;;5.93;2.90;;;21.90;36.40;;;;;;5033521;28;20034;-71
2021/04/11 10:11:37;;;;;;;4.18;2.60;;;21.90;36.90;;;;;;5033891;28;20541;-72
2021/04/11 10:14:31;;;;;;;5.95;2.92;;;22.10;37.90;;;;;;5031970;28;20029;-69
2021/04/11 10:17:24;;;;;;;3.03;2.20;;;22.20;36.00;;;;;;5033700;28;20034;-73
2021/04/11 10:20:00;;;;;;;6.20;3.10;;;22.30;36.60;;;;;;5033782;28;20034;-71
2021/04/11 10:22:52;;;;;;;7.45;3.67;;;22.40;36.90;;;;;;5032422;28;20030;-72
2021/04/11 10:25:40;;;;;;;5.18;3.55;;;22.50;36.20;;;;;;5033693;28;20025;-71
2021/04/11 10:28:24;;;;;;;6.97;3.05;;;22.50;36.80;;;;;;5032120;28;20030;-72
2021/04/11 10:31:16;;;;;;;5.30;2.90;;;22.60;36.10;;;;;;5031664;28;20117;-72
2021/04/11 10:33:49;;;;;;;;;;;22.70;37.10;;;;;;4992368;28;20044;-69
2021/04/11 10:36:23;;;;;;;4.70;2.88;;;22.60;37.90;;;;;;5033419;28;19909;-72
2021/04/11 10:39:01;;;;;;;5.85;2.97;;;22.30;36.00;;;;;;5032146;28;20025;-70
2021/04/11 10:41:31;;;;;;;18.40;3.63;;;22.20;38.70;;;;;;5033219;28;20535;-72
2021/04/11 10:43:59;;;;;;;4.38;3.00;;;22.10;37.30;;;;;;5037273;28;20025;-71
2021/04/11 10:46:50;;;;;;;5.22;3.47;;;22.00;36.90;;;;;;5036112;28;20604;-70
2021/04/11 10:49:24;;;;;;;4.03;2.95;;;22.10;37.40;;;;;;5035090;28;20065;-69
2021/04/11 10:51:59;;;;;;;5.35;3.25;;;22.10;36.80;;;;;;5036088;28;20061;-70
2021/04/11 10:54:47;;;;;;;5.32;2.92;;;22.10;37.80;;;;;;5037412;28;20029;-71
2021/04/11 10:57:50;;;;;;;10.50;3.25;;;22.10;37.90;;;;;;5036111;28;20036;-71
2021/04/11 11:00:54;;;;;;;5.22;4.30;;;22.20;39.90;;;;;;5037369;28;20025;-73
2021/04/11 11:03:38;;;;;;;6.53;3.17;;;22.20;39.60;;;;;;4993594;28;20050;-72
2021/04/11 11:06:22;;;;;;;7.07;3.15;;;22.10;38.80;;;;;;5017219;28;20022;-72
2021/04/11 11:09:15;;;;;;;23.73;3.85;;;22.10;40.40;;;;;;5015627;28;20382;-69
2021/04/11 11:12:03;;;;;;;8.40;3.40;;;22.20;39.10;;;;;;5015895;28;20347;-70
2021/04/11 11:15:01;;;;;;;9.80;3.53;;;22.10;37.40;;;;;;5015743;28;20089;-71
2021/04/11 11:17:48;;;;;;;9.35;3.33;;;22.40;36.70;;;;;;5017115;28;20109;-70
2021/04/11 11:20:23;;;;;;;7.45;3.38;;;22.70;37.20;;;;;;5017283;28;20382;-70
2021/04/11 11:22:52;;;;;;;3.50;2.42;;;23.10;37.80;;;;;;5016985;28;20125;-69
2021/04/11 11:25:55;;;;;;;4.45;3.00;;;23.30;36.20;;;;;;5015542;28;20040;-69
2021/04/11 11:28:33;;;;;;;26.80;4.18;;;23.10;36.30;;;;;;5016523;28;20375;-71
2021/04/11 11:31:19;;;;;;;7.47;3.40;;;22.60;35.80;;;;;;5016867;28;20018;-69
2021/04/11 11:33:54;;;;;;;9.40;3.80;;;22.10;36.60;;;;;;5015332;28;20124;-72
2021/04/11 11:36:41;;;;;;;6.78;3.60;;;21.90;39.10;;;;;;5015477;28;20092;-69
2021/04/11 11:39:30;;;;;;;5.03;2.50;;;21.80;38.50;;;;;;5015264;28;20030;-71
2021/04/11 11:41:59;;;;;;;4.40;2.72;;;21.40;38.10;;;;;;5016447;28;20076;-70
2021/04/11 11:44:37;;;;;;;4.95;3.17;;;21.10;40.00;;;;;;5016618;28;20038;-71
2021/04/11 11:47:24;;;;;;;6.55;2.53;;;21.10;38.10;;;;;;5016624;28;20118;-70
2021/04/11 11:50:21;;;;;;;5.22;3.05;;;21.10;39.70;;;;;;5016505;28;20018;-71
2021/04/11 11:53:04;;;;;;;8.07;3.05;;;21.10;39.00;;;;;;5016435;28;20026;-70
2021/04/11 11:55:42;;;;;;;9.40;3.20;;;20.90;39.30;;;;;;5014475;28;20043;-70
2021/04/11 11:58:10;;;;;;;5.82;2.72;;;20.90;39.90;;;;;;5016015;28;20034;-71
2021/04/11 12:00:40;;;;;;;3.00;2.65;;;20.70;38.90;;;;;;5014991;28;20415;-70
2021/04/11 12:03:33;;;;;;;10.35;3.00;;;20.70;39.30;;;;;;5014871;28;20050;-71
2021/04/11 12:06:05;;;;;;;5.60;3.47;;;20.80;38.00;;;;;;5015972;28;20022;-71
2021/04/11 12:09:11;;;;;;;7.93;3.20;;;21.00;40.20;;;;;;5014226;28;20479;-71
2021/04/11 12:11:46;;;;;;;3.80;2.63;;;21.00;38.30;;;;;;5003198;28;20034;-68
2021/04/11 12:14:22;;;;;;;7.28;2.95;;;21.00;40.50;;;;;;5016073;28;20030;-72
2021/04/11 12:17:05;;;;;;;12.05;3.50;;;21.20;39.40;;;;;;5015972;28;20030;-71
2021/04/11 12:20:01;;;;;;;5.25;3.13;;;21.20;41.50;;;;;;5014516;28;20454;-69
2021/04/11 12:22:29;;;;;;;5.63;2.92;;;21.30;38.60;;;;;;5015929;28;20488;-69
2021/04/11 12:24:59;;;;;;;8.10;3.03;;;20.90;43.40;;;;;;5015805;28;20034;-70
2021/04/11 12:27:39;;;;;;;9.30;4.10;;;20.70;44.10;;;;;;5015855;28;20034;-70
2021/04/11 12:30:14;;;;;;;10.05;3.90;;;20.40;42.90;;;;;;5015642;28;20030;-70
2021/04/11 12:33:03;;;;;;;10.68;4.95;;;20.10;45.10;;;;;;5015698;28;20038;-70
2021/04/11 12:35:50;;;;;;;12.68;5.93;;;19.90;47.00;;;;;;5015651;28;20038;-71
2021/04/11 12:38:42;;;;;;;10.48;5.00;;;19.70;46.30;;;;;;5016034;28;20027;-71
2021/04/11 12:41:17;;;;;;;;;;;19.40;46.80;;;;;;5009442;28;20045;-70
2021/04/11 12:43:57;;;;;;;14.43;5.63;;;19.30;48.70;;;;;;5014204;28;20342;-69
2021/04/11 12:46:45;;;;;;;11.93;6.22;;;19.10;49.60;;;;;;5015448;28;20573;-69
2021/04/11 12:49:28;;;;;;;21.27;7.20;;;18.90;50.40;;;;;;5015457;28;20028;-70
2021/04/11 12:52:03;;;;;;;30.67;8.80;;;18.80;51.90;;;;;;5014931;28;20026;-69
2021/04/11 12:54:51;;;;;;;20.77;8.27;;;18.70;52.20;;;;;;5013903;28;20036;-68
2021/04/11 12:57:24;;;;;;;17.23;9.02;;;18.60;52.50;;;;;;5015352;28;20104;-69
2021/04/11 13:00:16;;;;;;;18.33;10.15;;;18.50;54.20;;;;;;5015187;28;20026;-68
2021/04/11 13:02:57;;;;;;;21.70;10.57;;;18.50;53.70;;;;;;5049639;28;20053;-68
2021/04/11 13:05:34;;;;;;;21.73;10.53;;;18.40;54.20;;;;;;5054892;28;20040;-68
2021/04/11 13:08:19;;;;;;;29.23;11.68;;;18.40;55.40;;;;;;5054676;28;20029;-67
2021/04/11 13:11:03;;;;;;;26.88;12.52;;;18.40;57.50;;;;;;5054792;28;20082;-67
2021/04/11 13:13:35;;;;;;;57.05;28.27;;;18.30;58.90;;;;;;5036242;28;20029;-67
2021/04/11 13:16:25;;;;;;;30.73;18.33;;;18.30;59.80;;;;;;5054201;28;20385;-67
2021/04/11 13:19:18;;;;;;;23.15;11.73;;;18.30;58.60;;;;;;5036655;28;20025;-68
2021/04/11 13:22:09;;;;;;;20.80;11.38;;;18.30;59.90;;;;;;5054420;28;20075;-68
2021/04/11 13:24:52;;;;;;;25.93;15.43;;;18.30;60.90;;;;;;5054524;28;20036;-67
2021/04/11 13:27:50;;;;;;;19.42;12.05;;;18.20;59.50;;;;;;5036199;28;20364;-68
2021/04/11 13:30:29;;;;;;;21.92;10.30;;;18.10;59.40;;;;;;4998750;28;20036;-68
2021/04/11 13:33:19;;;;;;;19.38;9.55;;;18.10;60.60;;;;;;5054716;28;20389;-69
2021/04/11 13:35:59;;;;;;;22.85;10.68;;;18.00;59.90;;;;;;5054178;28;20033;-68
2021/04/11 13:38:38;;;;;;;20.05;10.18;;;17.80;59.20;;;;;;5054104;28;20377;-67